sensor_id;sensor_type;location;lat;lon;timestamp;P1;durP1;ratioP1;P2;durP2;ratioP2
16522;SDS011;19889;52.546;13.348;2023-05-02T00:00:52;9.00;;;6.28;;
16522;SDS011;19889;52.546;13.348;2023-05-02T00:03:20;6.75;;;5.28;;
16522;SDS011;19889;52.546;13.348;2023-05-02T00:05:47;9.35;;;5.00;;
16522;SDS011;19889;52.546;13.348;2023-05-02T00:08:15;8.23;;;5.32;;
16522;SDS011;19889;52.546;13.348;2023-05-02T00:10:42;8.98;;;5.07;;
16522;SDS011;19889;52.546;13.348;2023-05-02T00:13:09;6.53;;;4.70;;
16522;SDS011;19889;52.546;13.348;2023-05-02T00:15:36;9.07;;;5.85;;
16522;SDS011;19889;52.546;13.348;2023-05-02T00:18:03;10.85;;;5.90;;
16522;SDS011;19889;52.546;13.348;2023-05-02T00:20:30;9.32;;;5.80;;
16522;SDS011;19889;52.546;13.348;2023-05-02T00:22:57;11.82;;;6.30;;
16522;SDS011;19889;52.546;13.348;2023-05-02T00:25:25;12.63;;;6.28;;
16522;SDS011;19889;52.546;13.348;2023-05-02T00:27:52;8.48;;;5.90;;
16522;SDS011;19889;52.546;13.348;2023-05-02T00:30:20;8.25;;;5.75;;
16522;SDS011;19889;52.546;13.348;2023-05-02T00:32:47;8.98;;;5.75;;
16522;SDS011;19889;52.546;13.348;2023-05-02T00:35:14;8.23;;;5.80;;
16522;SDS011;19889;52.546;13.348;2023-05-02T00:37:41;8.25;;;4.90;;
16522;SDS011;19889;52.546;13.348;2023-05-02T00:40:08;6.15;;;4.82;;
16522;SDS011;19889;52.546;13.348;2023-05-02T00:42:37;10.23;;;6.05;;
16522;SDS011;19889;52.546;13.348;2023-05-02T00:45:04;6.88;;;5.63;;
16522;SDS011;19889;52.546;13.348;2023-05-02T00:47:32;8.50;;;5.57;;
16522;SDS011;19889;52.546;13.348;2023-05-02T00:49:59;10.32;;;6.30;;
16522;SDS011;19889;52.546;13.348;2023-05-02T00:52:29;7.65;;;5.10;;
16522;SDS011;19889;52.546;13.348;2023-05-02T00:54:58;6.63;;;5.05;;
16522;SDS011;19889;52.546;13.348;2023-05-02T00:57:26;8.90;;;4.75;;
16522;SDS011;19889;52.546;13.348;2023-05-02T00:59:55;8.07;;;4.45;;
16522;SDS011;19889;52.546;13.348;2023-05-02T01:02:29;8.27;;;5.13;;
16522;SDS011;19889;52.546;13.348;2023-05-02T01:05:03;6.25;;;4.93;;
16522;SDS011;19889;52.546;13.348;2023-05-02T01:10:39;6.95;;;5.10;;
16522;SDS011;19889;52.546;13.348;2023-05-02T01:13:16;7.03;;;4.53;;
16522;SDS011;19889;52.546;13.348;2023-05-02T01:15:49;6.38;;;4.68;;
16522;SDS011;19889;52.546;13.348;2023-05-02T01:18:17;6.90;;;4.70;;
16522;SDS011;19889;52.546;13.348;2023-05-02T01:20:49;6.38;;;4.35;;
16522;SDS011;19889;52.546;13.348;2023-05-02T01:23:24;6.47;;;5.10;;
16522;SDS011;19889;52.546;13.348;2023-05-02T01:26:02;5.43;;;4.38;;
16522;SDS011;19889;52.546;13.348;2023-05-02T01:28:43;5.88;;;4.78;;
16522;SDS011;19889;52.546;13.348;2023-05-02T01:31:20;7.10;;;4.88;;
16522;SDS011;19889;52.546;13.348;2023-05-02T01:33:50;7.00;;;4.60;;
16522;SDS011;19889;52.546;13.348;2023-05-02T01:36:18;8.32;;;4.78;;
16522;SDS011;19889;52.546;13.348;2023-05-02T01:38:46;7.70;;;5.30;;
16522;SDS011;19889;52.546;13.348;2023-05-02T01:41:15;5.72;;;4.32;;
16522;SDS011;19889;52.546;13.348;2023-05-02T01:43:44;6.30;;;4.65;;
16522;SDS011;19889;52.546;13.348;2023-05-02T01:46:12;4.90;;;4.32;;
16522;SDS011;19889;52.546;13.348;2023-05-02T01:48:40;4.50;;;4.10;;
16522;SDS011;19889;52.546;13.348;2023-05-02T01:51:09;6.45;;;4.50;;
16522;SDS011;19889;52.546;13.348;2023-05-02T01:53:39;5.35;;;4.25;;
16522;SDS011;19889;52.546;13.348;2023-05-02T01:56:06;7.38;;;4.68;;
16522;SDS011;19889;52.546;13.348;2023-05-02T01:58:33;5.72;;;4.25;;
16522;SDS011;19889;52.546;13.348;2023-05-02T02:01:04;6.13;;;4.85;;
16522;SDS011;19889;52.546;13.348;2023-05-02T02:03:34;5.93;;;4.88;;
16522;SDS011;19889;52.546;13.348;2023-05-02T02:06:01;8.60;;;4.70;;
16522;SDS011;19889;52.546;13.348;2023-05-02T02:08:29;5.03;;;4.18;;
16522;SDS011;19889;52.546;13.348;2023-05-02T02:10:58;6.10;;;4.70;;
16522;SDS011;19889;52.546;13.348;2023-05-02T02:13:30;6.60;;;4.18;;
16522;SDS011;19889;52.546;13.348;2023-05-02T02:16:01;7.47;;;4.63;;
16522;SDS011;19889;52.546;13.348;2023-05-02T02:18:34;6.82;;;5.00;;
16522;SDS011;19889;52.546;13.348;2023-05-02T02:21:03;6.22;;;4.50;;
16522;SDS011;19889;52.546;13.348;2023-05-02T02:23:32;6.93;;;4.05;;
16522;SDS011;19889;52.546;13.348;2023-05-02T02:26:01;4.45;;;4.05;;
16522;SDS011;19889;52.546;13.348;2023-05-02T02:28:30;8.15;;;5.50;;
16522;SDS011;19889;52.546;13.348;2023-05-02T02:30:59;5.75;;;4.63;;
16522;SDS011;19889;52.546;13.348;2023-05-02T02:33:28;8.88;;;3.83;;
16522;SDS011;19889;52.546;13.348;2023-05-02T02:35:57;4.68;;;4.18;;
16522;SDS011;19889;52.546;13.348;2023-05-02T02:38:35;4.28;;;3.78;;
16522;SDS011;19889;52.546;13.348;2023-05-02T02:41:09;7.63;;;4.90;;
16522;SDS011;19889;52.546;13.348;2023-05-02T02:43:44;10.13;;;5.97;;
16522;SDS011;19889;52.546;13.348;2023-05-02T02:46:19;11.73;;;6.68;;
16522;SDS011;19889;52.546;13.348;2023-05-02T02:49:00;6.70;;;5.40;;
16522;SDS011;19889;52.546;13.348;2023-05-02T02:51:40;7.18;;;5.15;;
16522;SDS011;19889;52.546;13.348;2023-05-02T02:54:12;13.77;;;10.50;;
16522;SDS011;19889;52.546;13.348;2023-05-02T02:56:46;21.48;;;14.88;;
16522;SDS011;19889;52.546;13.348;2023-05-02T02:59:18;33.30;;;20.25;;
16522;SDS011;19889;52.546;13.348;2023-05-02T03:01:55;36.80;;;18.05;;
16522;SDS011;19889;52.546;13.348;2023-05-02T03:04:28;27.38;;;13.63;;
16522;SDS011;19889;52.546;13.348;2023-05-02T03:06:57;16.98;;;10.35;;
16522;SDS011;19889;52.546;13.348;2023-05-02T03:09:25;12.27;;;7.30;;
16522;SDS011;19889;52.546;13.348;2023-05-02T03:11:55;8.02;;;5.35;;
16522;SDS011;19889;52.546;13.348;2023-05-02T03:14:24;7.18;;;4.30;;
16522;SDS011;19889;52.546;13.348;2023-05-02T03:16:50;4.30;;;3.60;;
16522;SDS011;19889;52.546;13.348;2023-05-02T03:19:18;6.07;;;3.70;;
16522;SDS011;19889;52.546;13.348;2023-05-02T03:21:46;8.20;;;3.38;;
16522;SDS011;19889;52.546;13.348;2023-05-02T03:24:17;8.25;;;3.30;;
16522;SDS011;19889;52.546;13.348;2023-05-02T03:26:44;5.25;;;3.40;;
16522;SDS011;19889;52.546;13.348;2023-05-02T03:29:12;4.00;;;3.20;;
16522;SDS011;19889;52.546;13.348;2023-05-02T03:31:40;7.30;;;3.60;;
16522;SDS011;19889;52.546;13.348;2023-05-02T03:34:07;5.18;;;3.13;;
16522;SDS011;19889;52.546;13.348;2023-05-02T03:36:36;4.83;;;3.73;;
16522;SDS011;19889;52.546;13.348;2023-05-02T03:39:04;5.22;;;3.20;;
16522;SDS011;19889;52.546;13.348;2023-05-02T03:41:31;5.50;;;3.53;;
16522;SDS011;19889;52.546;13.348;2023-05-02T03:44:04;6.28;;;3.38;;
16522;SDS011;19889;52.546;13.348;2023-05-02T03:46:31;5.40;;;3.00;;
16522;SDS011;19889;52.546;13.348;2023-05-02T03:48:59;3.75;;;3.28;;
16522;SDS011;19889;52.546;13.348;2023-05-02T03:51:26;4.73;;;3.07;;
16522;SDS011;19889;52.546;13.348;2023-05-02T03:53:55;5.82;;;4.03;;
16522;SDS011;19889;52.546;13.348;2023-05-02T03:56:23;6.30;;;3.40;;
16522;SDS011;19889;52.546;13.348;2023-05-02T03:59:00;5.53;;;3.25;;
16522;SDS011;19889;52.546;13.348;2023-05-02T04:01:27;7.05;;;3.45;;
16522;SDS011;19889;52.546;13.348;2023-05-02T04:03:56;5.47;;;3.60;;
16522;SDS011;19889;52.546;13.348;2023-05-02T04:06:25;6.23;;;3.60;;
16522;SDS011;19889;52.546;13.348;2023-05-02T04:08:58;4.78;;;3.88;;
16522;SDS011;19889;52.546;13.348;2023-05-02T04:11:33;5.88;;;3.50;;
16522;SDS011;19889;52.546;13.348;2023-05-02T04:14:01;5.05;;;3.42;;
16522;SDS011;19889;52.546;13.348;2023-05-02T04:16:28;6.50;;;3.57;;
16522;SDS011;19889;52.546;13.348;2023-05-02T04:18:56;5.73;;;3.20;;
16522;SDS011;19889;52.546;13.348;2023-05-02T04:21:23;4.70;;;3.30;;
16522;SDS011;19889;52.546;13.348;2023-05-02T04:23:51;5.32;;;3.60;;
16522;SDS011;19889;52.546;13.348;2023-05-02T04:26:18;5.53;;;3.67;;
16522;SDS011;19889;52.546;13.348;2023-05-02T04:28:53;9.07;;;5.03;;
16522;SDS011;19889;52.546;13.348;2023-05-02T04:31:20;5.57;;;3.43;;
16522;SDS011;19889;52.546;13.348;2023-05-02T04:33:48;6.22;;;3.10;;
16522;SDS011;19889;52.546;13.348;2023-05-02T04:36:19;7.10;;;3.55;;
16522;SDS011;19889;52.546;13.348;2023-05-02T04:38:46;4.70;;;3.17;;
16522;SDS011;19889;52.546;13.348;2023-05-02T04:41:15;6.40;;;4.82;;
16522;SDS011;19889;52.546;13.348;2023-05-02T04:43:48;6.20;;;4.83;;
16522;SDS011;19889;52.546;13.348;2023-05-02T04:46:16;3.30;;;3.00;;
16522;SDS011;19889;52.546;13.348;2023-05-02T04:48:44;5.13;;;3.63;;
16522;SDS011;19889;52.546;13.348;2023-05-02T04:51:11;3.78;;;3.20;;
16522;SDS011;19889;52.546;13.348;2023-05-02T04:53:38;6.67;;;3.33;;
16522;SDS011;19889;52.546;13.348;2023-05-02T04:56:06;6.00;;;3.72;;
16522;SDS011;19889;52.546;13.348;2023-05-02T04:58:35;4.00;;;2.63;;
16522;SDS011;19889;52.546;13.348;2023-05-02T05:01:06;4.93;;;3.07;;
16522;SDS011;19889;52.546;13.348;2023-05-02T05:03:34;4.00;;;2.97;;
16522;SDS011;19889;52.546;13.348;2023-05-02T05:06:01;5.80;;;3.20;;
16522;SDS011;19889;52.546;13.348;2023-05-02T05:08:29;3.42;;;2.78;;
16522;SDS011;19889;52.546;13.348;2023-05-02T05:10:56;4.30;;;3.30;;
16522;SDS011;19889;52.546;13.348;2023-05-02T05:13:23;5.93;;;2.70;;
16522;SDS011;19889;52.546;13.348;2023-05-02T05:15:51;6.33;;;2.93;;
16522;SDS011;19889;52.546;13.348;2023-05-02T05:18:22;3.22;;;2.60;;
16522;SDS011;19889;52.546;13.348;2023-05-02T05:20:51;4.17;;;2.60;;
16522;SDS011;19889;52.546;13.348;2023-05-02T05:23:18;3.80;;;2.60;;
16522;SDS011;19889;52.546;13.348;2023-05-02T05:25:45;5.97;;;3.37;;
16522;SDS011;19889;52.546;13.348;2023-05-02T05:28:14;4.55;;;3.22;;
16522;SDS011;19889;52.546;13.348;2023-05-02T05:30:41;4.35;;;3.17;;
16522;SDS011;19889;52.546;13.348;2023-05-02T05:33:11;5.68;;;3.20;;
16522;SDS011;19889;52.546;13.348;2023-05-02T05:35:38;4.95;;;3.83;;
16522;SDS011;19889;52.546;13.348;2023-05-02T05:38:07;6.30;;;3.37;;
16522;SDS011;19889;52.546;13.348;2023-05-02T05:40:36;5.37;;;3.10;;
16522;SDS011;19889;52.546;13.348;2023-05-02T05:43:04;3.88;;;2.85;;
16522;SDS011;19889;52.546;13.348;2023-05-02T05:45:35;5.60;;;3.15;;
16522;SDS011;19889;52.546;13.348;2023-05-02T05:48:03;6.37;;;3.93;;
16522;SDS011;19889;52.546;13.348;2023-05-02T05:50:35;5.73;;;3.53;;
16522;SDS011;19889;52.546;13.348;2023-05-02T05:53:02;6.07;;;3.23;;
16522;SDS011;19889;52.546;13.348;2023-05-02T05:55:31;5.43;;;3.77;;
16522;SDS011;19889;52.546;13.348;2023-05-02T05:57:59;6.82;;;3.67;;
16522;SDS011;19889;52.546;13.348;2023-05-02T06:00:27;6.85;;;3.67;;
16522;SDS011;19889;52.546;13.348;2023-05-02T06:02:54;3.63;;;3.08;;
16522;SDS011;19889;52.546;13.348;2023-05-02T06:05:26;6.00;;;3.70;;
16522;SDS011;19889;52.546;13.348;2023-05-02T06:07:54;7.60;;;3.60;;
16522;SDS011;19889;52.546;13.348;2023-05-02T06:10:21;8.25;;;4.05;;
16522;SDS011;19889;52.546;13.348;2023-05-02T06:12:50;8.27;;;4.13;;
16522;SDS011;19889;52.546;13.348;2023-05-02T06:15:21;6.18;;;4.00;;
16522;SDS011;19889;52.546;13.348;2023-05-02T06:17:49;7.22;;;4.40;;
16522;SDS011;19889;52.546;13.348;2023-05-02T06:20:16;7.53;;;4.55;;
16522;SDS011;19889;52.546;13.348;2023-05-02T06:22:43;7.72;;;4.38;;
16522;SDS011;19889;52.546;13.348;2023-05-02T06:25:11;7.15;;;4.13;;
16522;SDS011;19889;52.546;13.348;2023-05-02T06:27:38;5.53;;;4.40;;
16522;SDS011;19889;52.546;13.348;2023-05-02T06:30:08;9.88;;;5.50;;
16522;SDS011;19889;52.546;13.348;2023-05-02T06:32:35;12.15;;;5.55;;
16522;SDS011;19889;52.546;13.348;2023-05-02T06:35:03;9.40;;;6.93;;
16522;SDS011;19889;52.546;13.348;2023-05-02T06:37:33;8.60;;;5.88;;
16522;SDS011;19889;52.546;13.348;2023-05-02T06:40:00;11.82;;;7.53;;
16522;SDS011;19889;52.546;13.348;2023-05-02T06:42:29;9.48;;;6.70;;
16522;SDS011;19889;52.546;13.348;2023-05-02T06:44:56;8.82;;;6.95;;
16522;SDS011;19889;52.546;13.348;2023-05-02T06:47:24;12.15;;;6.38;;
16522;SDS011;19889;52.546;13.348;2023-05-02T06:49:52;10.05;;;6.93;;
16522;SDS011;19889;52.546;13.348;2023-05-02T06:52:19;9.07;;;5.97;;
16522;SDS011;19889;52.546;13.348;2023-05-02T06:54:46;9.43;;;6.35;;
16522;SDS011;19889;52.546;13.348;2023-05-02T06:57:13;7.90;;;5.97;;
16522;SDS011;19889;52.546;13.348;2023-05-02T06:59:41;9.95;;;6.22;;
16522;SDS011;19889;52.546;13.348;2023-05-02T07:02:08;6.88;;;5.65;;
16522;SDS011;19889;52.546;13.348;2023-05-02T07:04:36;14.52;;;8.85;;
16522;SDS011;19889;52.546;13.348;2023-05-02T07:07:03;7.95;;;5.90;;
16522;SDS011;19889;52.546;13.348;2023-05-02T07:09:31;8.55;;;5.90;;
16522;SDS011;19889;52.546;13.348;2023-05-02T07:11:58;8.52;;;5.35;;
16522;SDS011;19889;52.546;13.348;2023-05-02T07:14:25;8.15;;;5.38;;
16522;SDS011;19889;52.546;13.348;2023-05-02T07:16:52;8.82;;;5.90;;
16522;SDS011;19889;52.546;13.348;2023-05-02T07:19:19;9.27;;;5.60;;
16522;SDS011;19889;52.546;13.348;2023-05-02T07:21:47;8.73;;;5.30;;
16522;SDS011;19889;52.546;13.348;2023-05-02T07:24:14;7.88;;;4.88;;
16522;SDS011;19889;52.546;13.348;2023-05-02T07:26:41;9.23;;;5.57;;
16522;SDS011;19889;52.546;13.348;2023-05-02T07:29:08;4.60;;;4.10;;
16522;SDS011;19889;52.546;13.348;2023-05-02T07:31:35;6.15;;;4.75;;
16522;SDS011;19889;52.546;13.348;2023-05-02T07:34:02;6.00;;;4.60;;
16522;SDS011;19889;52.546;13.348;2023-05-02T07:36:29;5.90;;;4.13;;
16522;SDS011;19889;52.546;13.348;2023-05-02T07:38:58;6.60;;;4.68;;
16522;SDS011;19889;52.546;13.348;2023-05-02T07:41:25;5.63;;;4.50;;
16522;SDS011;19889;52.546;13.348;2023-05-02T07:43:52;5.63;;;4.15;;
16522;SDS011;19889;52.546;13.348;2023-05-02T07:46:19;5.68;;;3.85;;
16522;SDS011;19889;52.546;13.348;2023-05-02T07:48:46;5.95;;;4.20;;
16522;SDS011;19889;52.546;13.348;2023-05-02T07:51:13;10.38;;;5.93;;
16522;SDS011;19889;52.546;13.348;2023-05-02T07:53:40;6.40;;;4.30;;
16522;SDS011;19889;52.546;13.348;2023-05-02T07:56:09;5.05;;;3.30;;
16522;SDS011;19889;52.546;13.348;2023-05-02T07:58:37;6.20;;;4.35;;
16522;SDS011;19889;52.546;13.348;2023-05-02T08:01:04;6.82;;;3.72;;
16522;SDS011;19889;52.546;13.348;2023-05-02T08:03:31;4.60;;;3.38;;
16522;SDS011;19889;52.546;13.348;2023-05-02T08:05:58;5.05;;;3.60;;
16522;SDS011;19889;52.546;13.348;2023-05-02T08:08:26;3.92;;;3.00;;
16522;SDS011;19889;52.546;13.348;2023-05-02T08:10:53;5.40;;;3.28;;
16522;SDS011;19889;52.546;13.348;2023-05-02T08:13:21;4.70;;;3.28;;
16522;SDS011;19889;52.546;13.348;2023-05-02T08:15:48;5.43;;;3.58;;
16522;SDS011;19889;52.546;13.348;2023-05-02T08:18:15;5.35;;;3.58;;
16522;SDS011;19889;52.546;13.348;2023-05-02T08:20:42;7.07;;;4.50;;
16522;SDS011;19889;52.546;13.348;2023-05-02T08:23:09;10.82;;;6.50;;
16522;SDS011;19889;52.546;13.348;2023-05-02T08:25:36;7.90;;;5.18;;
16522;SDS011;19889;52.546;13.348;2023-05-02T08:28:03;6.55;;;5.10;;
16522;SDS011;19889;52.546;13.348;2023-05-02T08:30:31;7.13;;;4.75;;
16522;SDS011;19889;52.546;13.348;2023-05-02T08:32:58;7.93;;;5.00;;
16522;SDS011;19889;52.546;13.348;2023-05-02T08:35:27;5.88;;;4.50;;
16522;SDS011;19889;52.546;13.348;2023-05-02T08:37:54;4.97;;;3.83;;
16522;SDS011;19889;52.546;13.348;2023-05-02T08:40:21;4.88;;;3.35;;
16522;SDS011;19889;52.546;13.348;2023-05-02T08:42:49;6.03;;;4.13;;
16522;SDS011;19889;52.546;13.348;2023-05-02T08:45:18;4.18;;;3.78;;
16522;SDS011;19889;52.546;13.348;2023-05-02T08:47:47;4.55;;;3.25;;
16522;SDS011;19889;52.546;13.348;2023-05-02T08:50:15;5.20;;;3.53;;
16522;SDS011;19889;52.546;13.348;2023-05-02T08:52:44;4.03;;;3.28;;
16522;SDS011;19889;52.546;13.348;2023-05-02T08:55:12;4.05;;;3.05;;
16522;SDS011;19889;52.546;13.348;2023-05-02T08:57:39;4.10;;;3.50;;
16522;SDS011;19889;52.546;13.348;2023-05-02T09:00:09;8.52;;;3.83;;
16522;SDS011;19889;52.546;13.348;2023-05-02T09:02:40;5.60;;;3.95;;
16522;SDS011;19889;52.546;13.348;2023-05-02T09:05:18;4.03;;;3.30;;
16522;SDS011;19889;52.546;13.348;2023-05-02T09:07:46;5.30;;;3.70;;
16522;SDS011;19889;52.546;13.348;2023-05-02T09:10:14;4.75;;;3.80;;
16522;SDS011;19889;52.546;13.348;2023-05-02T09:12:41;5.75;;;3.75;;
16522;SDS011;19889;52.546;13.348;2023-05-02T09:15:09;5.90;;;3.50;;
16522;SDS011;19889;52.546;13.348;2023-05-02T09:17:38;5.15;;;3.10;;
16522;SDS011;19889;52.546;13.348;2023-05-02T09:20:08;4.55;;;3.15;;
16522;SDS011;19889;52.546;13.348;2023-05-02T09:22:36;3.92;;;3.10;;
16522;SDS011;19889;52.546;13.348;2023-05-02T09:25:05;4.88;;;3.08;;
16522;SDS011;19889;52.546;13.348;2023-05-02T09:27:48;3.92;;;2.97;;
16522;SDS011;19889;52.546;13.348;2023-05-02T09:30:20;4.55;;;3.17;;
16522;SDS011;19889;52.546;13.348;2023-05-02T09:32:49;4.55;;;3.65;;
16522;SDS011;19889;52.546;13.348;2023-05-02T09:35:20;4.68;;;3.38;;
16522;SDS011;19889;52.546;13.348;2023-05-02T09:37:50;8.27;;;6.78;;
16522;SDS011;19889;52.546;13.348;2023-05-02T09:40:18;5.15;;;3.72;;
16522;SDS011;19889;52.546;13.348;2023-05-02T09:42:45;4.60;;;3.70;;
16522;SDS011;19889;52.546;13.348;2023-05-02T09:45:19;4.32;;;3.20;;
16522;SDS011;19889;52.546;13.348;2023-05-02T09:47:47;3.47;;;2.80;;
16522;SDS011;19889;52.546;13.348;2023-05-02T09:53:02;6.45;;;3.65;;
16522;SDS011;19889;52.546;13.348;2023-05-02T09:55:30;2.38;;;2.17;;
16522;SDS011;19889;52.546;13.348;2023-05-02T09:57:58;3.55;;;2.25;;
16522;SDS011;19889;52.546;13.348;2023-05-02T10:00:38;4.88;;;2.35;;
16522;SDS011;19889;52.546;13.348;2023-05-02T10:03:08;4.50;;;2.75;;
16522;SDS011;19889;52.546;13.348;2023-05-02T10:05:37;4.85;;;2.97;;
16522;SDS011;19889;52.546;13.348;2023-05-02T10:08:05;4.85;;;2.88;;
16522;SDS011;19889;52.546;13.348;2023-05-02T10:10:34;3.35;;;2.72;;
16522;SDS011;19889;52.546;13.348;2023-05-02T10:13:03;4.25;;;2.70;;
16522;SDS011;19889;52.546;13.348;2023-05-02T10:15:31;4.15;;;3.08;;
16522;SDS011;19889;52.546;13.348;2023-05-02T10:17:59;4.97;;;3.47;;
16522;SDS011;19889;52.546;13.348;2023-05-02T10:20:34;4.95;;;3.03;;
16522;SDS011;19889;52.546;13.348;2023-05-02T10:23:04;3.53;;;2.22;;
16522;SDS011;19889;52.546;13.348;2023-05-02T10:25:31;3.22;;;2.60;;
16522;SDS011;19889;52.546;13.348;2023-05-02T10:27:59;5.65;;;2.97;;
16522;SDS011;19889;52.546;13.348;2023-05-02T10:30:27;5.30;;;3.90;;
16522;SDS011;19889;52.546;13.348;2023-05-02T10:32:56;3.65;;;2.97;;
16522;SDS011;19889;52.546;13.348;2023-05-02T10:35:25;6.20;;;3.00;;
16522;SDS011;19889;52.546;13.348;2023-05-02T10:37:52;6.18;;;3.83;;
16522;SDS011;19889;52.546;13.348;2023-05-02T10:40:21;4.63;;;2.83;;
16522;SDS011;19889;52.546;13.348;2023-05-02T10:42:48;3.15;;;2.03;;
16522;SDS011;19889;52.546;13.348;2023-05-02T10:45:30;2.72;;;2.20;;
16522;SDS011;19889;52.546;13.348;2023-05-02T10:48:17;7.38;;;2.72;;
16522;SDS011;19889;52.546;13.348;2023-05-02T10:50:45;6.93;;;2.95;;
16522;SDS011;19889;52.546;13.348;2023-05-02T10:53:26;6.43;;;3.13;;
16522;SDS011;19889;52.546;13.348;2023-05-02T10:56:10;5.13;;;2.88;;
16522;SDS011;19889;52.546;13.348;2023-05-02T10:58:41;6.93;;;2.97;;
16522;SDS011;19889;52.546;13.348;2023-05-02T11:04:07;10.20;;;4.15;;
16522;SDS011;19889;52.546;13.348;2023-05-02T11:06:35;7.07;;;4.03;;
16522;SDS011;19889;52.546;13.348;2023-05-02T11:09:30;8.75;;;3.55;;
16522;SDS011;19889;52.546;13.348;2023-05-02T11:12:02;11.50;;;3.85;;
16522;SDS011;19889;52.546;13.348;2023-05-02T11:17:23;8.97;;;5.00;;
16522;SDS011;19889;52.546;13.348;2023-05-02T11:22:59;7.47;;;3.70;;
16522;SDS011;19889;52.546;13.348;2023-05-02T11:25:53;13.55;;;3.75;;
16522;SDS011;19889;52.546;13.348;2023-05-02T11:28:41;7.13;;;3.17;;
16522;SDS011;19889;52.546;13.348;2023-05-02T11:34:38;9.80;;;3.15;;
16522;SDS011;19889;52.546;13.348;2023-05-02T11:37:11;6.55;;;2.45;;
16522;SDS011;19889;52.546;13.348;2023-05-02T11:39:38;6.13;;;3.17;;
16522;SDS011;19889;52.546;13.348;2023-05-02T11:42:05;3.53;;;2.47;;
16522;SDS011;19889;52.546;13.348;2023-05-02T11:44:36;5.80;;;2.60;;
16522;SDS011;19889;52.546;13.348;2023-05-02T11:47:21;5.30;;;2.50;;
16522;SDS011;19889;52.546;13.348;2023-05-02T11:49:48;4.65;;;2.60;;
16522;SDS011;19889;52.546;13.348;2023-05-02T11:52:16;9.43;;;3.03;;
16522;SDS011;19889;52.546;13.348;2023-05-02T11:54:43;4.13;;;2.47;;
16522;SDS011;19889;52.546;13.348;2023-05-02T11:57:11;11.25;;;2.53;;
16522;SDS011;19889;52.546;13.348;2023-05-02T11:59:49;6.22;;;2.55;;
16522;SDS011;19889;52.546;13.348;2023-05-02T12:02:17;5.30;;;2.30;;
16522;SDS011;19889;52.546;13.348;2023-05-02T12:04:47;8.48;;;2.97;;
16522;SDS011;19889;52.546;13.348;2023-05-02T12:07:14;6.40;;;2.53;;
16522;SDS011;19889;52.546;13.348;2023-05-02T12:09:50;7.45;;;3.30;;
16522;SDS011;19889;52.546;13.348;2023-05-02T12:12:20;4.95;;;2.40;;
16522;SDS011;19889;52.546;13.348;2023-05-02T12:14:47;7.20;;;2.78;;
16522;SDS011;19889;52.546;13.348;2023-05-02T12:17:15;7.00;;;3.20;;
16522;SDS011;19889;52.546;13.348;2023-05-02T12:19:42;5.13;;;2.97;;
16522;SDS011;19889;52.546;13.348;2023-05-02T12:22:10;7.53;;;2.67;;
16522;SDS011;19889;52.546;13.348;2023-05-02T12:24:38;5.90;;;2.25;;
16522;SDS011;19889;52.546;13.348;2023-05-02T12:27:07;7.10;;;3.10;;
16522;SDS011;19889;52.546;13.348;2023-05-02T12:29:39;8.77;;;3.00;;
16522;SDS011;19889;52.546;13.348;2023-05-02T12:32:06;5.25;;;2.67;;
16522;SDS011;19889;52.546;13.348;2023-05-02T12:34:35;9.32;;;2.97;;
16522;SDS011;19889;52.546;13.348;2023-05-02T12:37:03;5.53;;;2.55;;
16522;SDS011;19889;52.546;13.348;2023-05-02T12:39:34;7.65;;;2.85;;
16522;SDS011;19889;52.546;13.348;2023-05-02T12:42:08;13.30;;;2.78;;
16522;SDS011;19889;52.546;13.348;2023-05-02T12:44:37;2.77;;;2.27;;
16522;SDS011;19889;52.546;13.348;2023-05-02T12:47:04;8.18;;;3.08;;
16522;SDS011;19889;52.546;13.348;2023-05-02T12:49:32;6.23;;;2.37;;
16522;SDS011;19889;52.546;13.348;2023-05-02T12:52:00;9.75;;;2.67;;
16522;SDS011;19889;52.546;13.348;2023-05-02T12:54:27;9.82;;;3.15;;
16522;SDS011;19889;52.546;13.348;2023-05-02T12:56:54;8.60;;;2.95;;
16522;SDS011;19889;52.546;13.348;2023-05-02T12:59:28;6.65;;;3.05;;
16522;SDS011;19889;52.546;13.348;2023-05-02T13:01:56;7.70;;;3.13;;
16522;SDS011;19889;52.546;13.348;2023-05-02T13:04:32;10.35;;;3.63;;
16522;SDS011;19889;52.546;13.348;2023-05-02T13:07:01;6.17;;;2.60;;
16522;SDS011;19889;52.546;13.348;2023-05-02T13:09:28;4.43;;;3.13;;
16522;SDS011;19889;52.546;13.348;2023-05-02T13:11:55;10.00;;;3.30;;
16522;SDS011;19889;52.546;13.348;2023-05-02T13:14:23;8.73;;;2.90;;
16522;SDS011;19889;52.546;13.348;2023-05-02T13:16:50;6.47;;;2.70;;
16522;SDS011;19889;52.546;13.348;2023-05-02T13:19:17;11.30;;;3.65;;
16522;SDS011;19889;52.546;13.348;2023-05-02T13:21:44;6.60;;;2.93;;
16522;SDS011;19889;52.546;13.348;2023-05-02T13:24:12;6.78;;;2.60;;
16522;SDS011;19889;52.546;13.348;2023-05-02T13:26:41;9.73;;;2.77;;
16522;SDS011;19889;52.546;13.348;2023-05-02T13:29:08;8.60;;;3.25;;
16522;SDS011;19889;52.546;13.348;2023-05-02T13:31:36;8.30;;;2.73;;
16522;SDS011;19889;52.546;13.348;2023-05-02T13:34:03;6.75;;;3.15;;
16522;SDS011;19889;52.546;13.348;2023-05-02T13:36:31;5.03;;;2.57;;
16522;SDS011;19889;52.546;13.348;2023-05-02T13:38:58;4.47;;;2.30;;
16522;SDS011;19889;52.546;13.348;2023-05-02T13:41:27;5.15;;;2.58;;
16522;SDS011;19889;52.546;13.348;2023-05-02T13:43:54;6.93;;;3.30;;
16522;SDS011;19889;52.546;13.348;2023-05-02T13:46:21;5.03;;;2.50;;
16522;SDS011;19889;52.546;13.348;2023-05-02T13:48:47;7.33;;;2.97;;
16522;SDS011;19889;52.546;13.348;2023-05-02T13:51:14;5.60;;;3.20;;
16522;SDS011;19889;52.546;13.348;2023-05-02T13:53:41;4.20;;;2.60;;
16522;SDS011;19889;52.546;13.348;2023-05-02T13:56:08;6.15;;;3.45;;
16522;SDS011;19889;52.546;13.348;2023-05-02T13:58:37;5.10;;;3.27;;
16522;SDS011;19889;52.546;13.348;2023-05-02T14:01:03;8.13;;;3.07;;
16522;SDS011;19889;52.546;13.348;2023-05-02T14:03:30;6.80;;;3.40;;
16522;SDS011;19889;52.546;13.348;2023-05-02T14:05:57;7.37;;;3.70;;
16522;SDS011;19889;52.546;13.348;2023-05-02T14:08:24;7.72;;;2.47;;
16522;SDS011;19889;52.546;13.348;2023-05-02T14:10:52;9.30;;;2.87;;
16522;SDS011;19889;52.546;13.348;2023-05-02T14:13:19;4.67;;;2.70;;
16522;SDS011;19889;52.546;13.348;2023-05-02T14:15:47;6.27;;;2.87;;
16522;SDS011;19889;52.546;13.348;2023-05-02T14:18:14;7.10;;;2.72;;
16522;SDS011;19889;52.546;13.348;2023-05-02T14:20:41;5.23;;;2.97;;
16522;SDS011;19889;52.546;13.348;2023-05-02T14:23:08;8.10;;;3.00;;
16522;SDS011;19889;52.546;13.348;2023-05-02T14:25:35;11.47;;;3.57;;
16522;SDS011;19889;52.546;13.348;2023-05-02T14:28:03;6.27;;;2.40;;
16522;SDS011;19889;52.546;13.348;2023-05-02T14:30:30;5.80;;;2.73;;
16522;SDS011;19889;52.546;13.348;2023-05-02T14:32:58;11.80;;;2.92;;
16522;SDS011;19889;52.546;13.348;2023-05-02T14:35:25;7.20;;;2.27;;
16522;SDS011;19889;52.546;13.348;2023-05-02T14:37:52;7.73;;;2.97;;
16522;SDS011;19889;52.546;13.348;2023-05-02T14:40:19;8.50;;;2.50;;
16522;SDS011;19889;52.546;13.348;2023-05-02T14:42:46;7.57;;;2.50;;
16522;SDS011;19889;52.546;13.348;2023-05-02T14:45:13;6.57;;;2.50;;
16522;SDS011;19889;52.546;13.348;2023-05-02T14:47:40;6.43;;;2.57;;
16522;SDS011;19889;52.546;13.348;2023-05-02T14:50:09;5.93;;;2.27;;
16522;SDS011;19889;52.546;13.348;2023-05-02T14:52:36;7.13;;;2.20;;
16522;SDS011;19889;52.546;13.348;2023-05-02T14:55:03;6.00;;;2.27;;
16522;SDS011;19889;52.546;13.348;2023-05-02T14:57:31;6.80;;;2.73;;
16522;SDS011;19889;52.546;13.348;2023-05-02T14:59:58;5.50;;;2.37;;
16522;SDS011;19889;52.546;13.348;2023-05-02T15:02:26;10.83;;;2.63;;